Lela Franco — WDI2504 — position and weather

sailwx.info

Track history (hours):
 
Tides and Currents Weather Stations Pressure Air Temp Water Temp Dewpoint Dewpoint Depression Visibility Wind Speed Wind Dir Waves Ship Positions

Lela Franco

Owner: Harley Marine Services, Inc, Seattle, WA. More information available from US FCC via Universal Licensing System and Coast Guard Vessel Documentation Center.

Last reported at 2017-Sep-19 20:30 UTC. Time now 2017-Sep-19 20:42 UTC.
Position N 33°43' W 118°14'.

Length 18 m; draft 3 m.

Type: Towing. MMSI: 366926730.

Date/timePositionNaut miles runAvg speedWind from/ knotsBaromVisibWave heightAir tempDewpointWater temp
2017-Sep-19 20:30N 33°43' W 118°14'1 2.8
2017-Sep-19 20:00N 33°44' W 118°15'1 2.0
2017-Sep-19 19:30N 33°43' W 118°16'1 1.3
2017-Sep-19 18:55N 33°43' W 118°15'1 2.8
2017-Sep-19 18:27N 33°44' W 118°16'0 0.0
2017-Sep-19 18:00N 33°44' W 118°16'0 0.0
2017-Sep-19 17:29N 33°44' W 118°16'0 0.0
2017-Sep-19 17:00N 33°44' W 118°16'1063.9
2017-Sep-19 16:51N 33°35' W 118°21'1027.7
2017-Sep-19 16:29N 33°44' W 118°16'7205.9
2017-Sep-19 16:27N 33°37' W 118°19'5 7.0
2017-Sep-19 15:47N 33°41' W 118°16'2 5.4
2017-Sep-19 15:24N 33°43' W 118°16'1 4.0
2017-Sep-19 15:10N 33°44' W 118°16'0 0.0
2017-Sep-19 14:56N 33°44' W 118°16'3 1.2
2017-Sep-19 12:40N 33°45' W 118°13'0 0.5
2017-Sep-19 12:08N 33°46' W 118°13'0 1.0
2017-Sep-19 11:57N 33°46' W 118°13'1 1.1
2017-Sep-19 11:18N 33°45' W 118°13'3 4.6
2017-Sep-19 10:37N 33°43' W 118°16'1 8.8
2017-Sep-19 10:27N 33°44' W 118°17'1 3.2
2017-Sep-19 09:59N 33°46' W 118°16'0 0.3
2017-Sep-19 09:28N 33°46' W 118°15'1 1.7
2017-Sep-19 08:41N 33°46' W 118°14'0 0.0
2017-Sep-19 08:27N 33°46' W 118°14'3 2.5
2017-Sep-19 07:05N 33°43' W 118°15'1 7.5
2017-Sep-19 07:00N 33°43' W 118°16'0 0.7
2017-Sep-19 06:23N 33°44' W 118°16'0 0.0
2017-Sep-19 05:58N 33°44' W 118°16'0 0.0
2017-Sep-19 05:29N 33°44' W 118°16'0 0.0
2017-Sep-19 05:00N 33°44' W 118°16'0 0.0
2017-Sep-19 04:24N 33°44' W 118°16'0 0.0
2017-Sep-19 03:58N 33°44' W 118°16'0 0.0
2017-Sep-19 03:25N 33°44' W 118°16'0 0.0
2017-Sep-19 03:00N 33°44' W 118°16'1 2.2
2017-Sep-19 02:30N 33°45' W 118°16'0 0.6
2017-Sep-19 01:57N 33°45' W 118°16'2 3.8
2017-Sep-19 01:30N 33°43' W 118°16'1 1.2
2017-Sep-19 00:57N 33°44' W 118°16'0 0.0
2017-Sep-19 00:30N 33°44' W 118°16'0 0.0
2017-Sep-19 00:00N 33°44' W 118°16'0 0.0
2017-Sep-18 23:30N 33°44' W 118°16'0 0.0
2017-Sep-18 23:00N 33°44' W 118°16'0 0.4
2017-Sep-18 22:29N 33°44' W 118°16'2 3.2
2017-Sep-18 21:57N 33°45' W 118°16'0 0.9
2017-Sep-18 21:30N 33°46' W 118°16'0 0.1
2017-Sep-18 20:56N 33°46' W 118°16'0 0.9
2017-Sep-18 20:30N 33°46' W 118°15'2 3.5
2017-Sep-18 20:00N 33°45' W 118°13'0 0.1
2017-Sep-18 19:30N 33°45' W 118°13'1 1.6
2017-Sep-18 18:58N 33°44' W 118°13'2 4.4
2017-Sep-18 18:30N 33°44' W 118°10'0 0.6
2017-Sep-18 18:00N 33°44' W 118°10'3 6.1
2017-Sep-18 17:30N 33°43' W 118°14'2 2.9
2017-Sep-18 16:54N 33°44' W 118°16'0 0.0
2017-Sep-18 16:30N 33°44' W 118°16'8 4.1
2017-Sep-18 14:38N 33°43' W 118°06'0 0.4
2017-Sep-18 14:30N 33°43' W 118°06'1 2.0
2017-Sep-18 13:48N 33°44' W 118°08'411.0
2017-Sep-18 13:26N 33°45' W 118°13'0 0.5
2017-Sep-18 12:25N 33°45' W 118°13'0 0.5
2017-Sep-18 11:54N 33°45' W 118°13'2 5.6
2017-Sep-18 11:30N 33°44' W 118°11'3 4.7
2017-Sep-18 10:51N 33°43' W 118°15'1 2.7
2017-Sep-18 10:20N 33°44' W 118°16'0 0.0
2017-Sep-18 09:48N 33°44' W 118°16'0 0.0
2017-Sep-18 09:29N 33°44' W 118°16'0 0.0
2017-Sep-18 08:58N 33°44' W 118°16'0 0.0
2017-Sep-18 08:29N 33°44' W 118°16'0 0.0
2017-Sep-18 07:57N 33°44' W 118°16'0 0.0
2017-Sep-18 07:24N 33°44' W 118°16'0 0.0
2017-Sep-18 07:00N 33°44' W 118°16'0 0.0
2017-Sep-18 06:25N 33°44' W 118°16'1 1.4
2017-Sep-18 05:59N 33°44' W 118°16'2 3.9
2017-Sep-18 05:26N 33°46' W 118°16'2 5.5
2017-Sep-18 05:00N 33°44' W 118°16'1 1.2
2017-Sep-18 04:30N 33°44' W 118°16'0 0.1
2017-Sep-18 03:57N 33°44' W 118°16'2 4.4
2017-Sep-18 03:29N 33°44' W 118°13'1 2.1
2017-Sep-18 02:59N 33°45' W 118°13'1 3.0
2017-Sep-18 02:30N 33°46' W 118°13'0 0.0
2017-Sep-18 01:55N 33°46' W 118°13'0 0.0
2017-Sep-18 01:29N 33°46' W 118°13'0 0.0
2017-Sep-18 00:58N 33°46' W 118°13'0 0.1
2017-Sep-18 00:27N 33°46' W 118°13'3 7.1
2017-Sep-18 00:00N 33°43' W 118°14'1 2.8
2017-Sep-17 23:30N 33°44' W 118°16'0 0.9
2017-Sep-17 22:58N 33°44' W 118°15'1 1.3
2017-Sep-17 22:30N 33°44' W 118°16'0 0.0
2017-Sep-17 22:00N 33°44' W 118°16'0 0.0
2017-Sep-17 21:30N 33°44' W 118°16'2 3.4
2017-Sep-17 21:00N 33°43' W 118°14'3 6.1
2017-Sep-17 20:30N 33°46' W 118°13'2 3.0
2017-Sep-17 19:58N 33°45' W 118°13'1 1.3
2017-Sep-17 19:30N 33°44' W 118°13'2 4.4
2017-Sep-17 18:59N 33°44' W 118°16'0 0.0
2017-Sep-17 18:28N 33°44' W 118°16'0 0.0
2017-Sep-17 18:00N 33°44' W 118°16'0 0.0
2017-Sep-17 17:29N 33°44' W 118°16'0 0.0
2017-Sep-17 16:51N 33°44' W 118°16'0 0.0
2017-Sep-17 16:29N 33°44' W 118°16'0 0.0
2017-Sep-17 15:08N 33°44' W 118°16'0 0.0
2017-Sep-17 14:58N 33°44' W 118°16'1 0.8
2017-Sep-17 14:10N 33°43' W 118°16'2 1.2
2017-Sep-17 12:10N 33°46' W 118°16'0 0.0
2017-Sep-17 11:23N 33°46' W 118°16'3 4.4
2017-Sep-17 10:47N 33°43' W 118°16'3 9.9
2017-Sep-17 10:31N 33°44' W 118°13'1 1.8
2017-Sep-17 09:54N 33°44' W 118°12'1 2.8
2017-Sep-17 09:30N 33°45' W 118°13'0 0.0
2017-Sep-17 08:57N 33°45' W 118°13'0 0.0
2017-Sep-17 08:27N 33°45' W 118°13'0 0.0
2017-Sep-17 08:00N 33°45' W 118°13'0 0.0
2017-Sep-17 07:30N 33°45' W 118°13'0 0.0
2017-Sep-17 06:57N 33°45' W 118°13'0 0.0
2017-Sep-17 06:29N 33°45' W 118°13'0 0.5
2017-Sep-17 05:58N 33°45' W 118°13'1 1.3
2017-Sep-17 05:23N 33°44' W 118°13'1 2.8
2017-Sep-17 04:59N 33°45' W 118°12'3 6.3
2017-Sep-17 04:30N 33°44' W 118°16'0 0.7
2017-Sep-17 03:59N 33°44' W 118°16'0 0.0
2017-Sep-17 03:30N 33°44' W 118°16'0 0.0
2017-Sep-17 02:58N 33°44' W 118°16'0 1.1
2017-Sep-17 02:30N 33°43' W 118°16'2 3.6
2017-Sep-17 02:00N 33°45' W 118°16'0 0.9
2017-Sep-17 01:27N 33°46' W 118°17'1 1.1
2017-Sep-17 00:57N 33°45' W 118°16'2 5.1
2017-Sep-17 00:30N 33°43' W 118°16'3 5.7
2017-Sep-17 00:00N 33°45' W 118°13'0 0.5
2017-Sep-16 23:30N 33°45' W 118°13'0 0.0
2017-Sep-16 22:58N 33°45' W 118°13'0 0.0
2017-Sep-16 22:30N 33°45' W 118°13'0 0.0
2017-Sep-16 22:00N 33°45' W 118°13'0 0.0
2017-Sep-16 21:30N 33°45' W 118°13'0 0.0
2017-Sep-16 21:00N 33°45' W 118°13'0 0.0
2017-Sep-16 20:28N 33°45' W 118°13'0 0.9
2017-Sep-16 20:00N 33°45' W 118°12'1 2.2
2017-Sep-16 19:29N 33°45' W 118°11'0 0.3
2017-Sep-16 19:00N 33°45' W 118°11'3 5.3
2017-Sep-16 18:24N 33°43' W 118°14'2 3.2
2017-Sep-16 17:54N 33°44' W 118°16'0 0.0
2017-Sep-16 17:30N 33°44' W 118°16'0 0.0
2017-Sep-16 16:55N 33°44' W 118°16'0 0.0
2017-Sep-16 16:27N 33°44' W 118°16'0 0.0
2017-Sep-16 15:59N 33°44' W 118°16'1 0.3
2017-Sep-16 14:15N 33°44' W 118°16'2 5.3
2017-Sep-16 13:55N 33°45' W 118°16'0 0.1
2017-Sep-16 13:26N 33°45' W 118°16'2 3.4
2017-Sep-16 12:57N 33°44' W 118°16'2 4.1
2017-Sep-16 12:29N 33°43' W 118°15'1 1.3
2017-Sep-16 11:48N 33°43' W 118°16'0 0.5
2017-Sep-16 11:18N 33°43' W 118°16'0 0.6
2017-Sep-16 10:52N 33°44' W 118°16'0 0.8
2017-Sep-16 10:26N 33°44' W 118°15'0 0.4
2017-Sep-16 09:54N 33°44' W 118°16'0 0.0
2017-Sep-16 09:28N 33°44' W 118°16'0 0.0
2017-Sep-16 08:50N 33°44' W 118°16'1 2.6
2017-Sep-16 08:30N 33°44' W 118°17'1 1.0
2017-Sep-16 07:53N 33°45' W 118°16'2 6.2
2017-Sep-16 07:29N 33°43' W 118°15'3 5.6
2017-Sep-16 06:59N 33°45' W 118°12'3 6.2
2017-Sep-16 06:30N 33°44' W 118°16'0 0.1
2017-Sep-16 06:00N 33°44' W 118°16'2 4.5
2017-Sep-16 05:30N 33°44' W 118°13'2 3.8
2017-Sep-16 05:00N 33°46' W 118°13'0 0.9
2017-Sep-16 04:30N 33°46' W 118°13'1 2.9
2017-Sep-16 04:00N 33°45' W 118°13'3 5.5
2017-Sep-16 03:30N 33°42' W 118°11'1 2.8
2017-Sep-16 03:00N 33°41' W 118°10'1 2.4
2017-Sep-16 02:30N 33°41' W 118°08'0 0.8
2017-Sep-16 01:59N 33°41' W 118°08'3 6.4
2017-Sep-16 01:30N 33°42' W 118°12'3 6.6
2017-Sep-16 01:00N 33°43' W 118°15'1 2.2
2017-Sep-16 00:30N 33°44' W 118°16'0 0.0
2017-Sep-16 00:00N 33°44' W 118°16'0 0.0
2017-Sep-15 23:30N 33°44' W 118°16'3 5.6
2017-Sep-15 23:00N 33°43' W 118°12'4 8.3
2017-Sep-15 22:30N 33°44' W 118°07'2 3.1
2017-Sep-15 21:59N 33°44' W 118°06'1 1.5
2017-Sep-15 21:30N 33°44' W 118°06'3 6.2
2017-Sep-15 21:00N 33°44' W 118°10'4 6.5
2017-Sep-15 20:28N 33°43' W 118°14'2 3.7
2017-Sep-15 20:00N 33°44' W 118°16'0 0.0
2017-Sep-15 19:29N 33°44' W 118°16'0 0.3
2017-Sep-15 18:59N 33°44' W 118°16'0 0.0
2017-Sep-15 18:30N 33°44' W 118°16'0 0.0
2017-Sep-15 17:59N 33°44' W 118°16'0 0.0
2017-Sep-15 17:28N 33°44' W 118°16'0 0.0
2017-Sep-15 16:58N 33°44' W 118°16'0 0.0
2017-Sep-15 16:30N 33°44' W 118°16'1 1.8
2017-Sep-15 16:00N 33°44' W 118°17'2 4.1
2017-Sep-15 15:28N 33°46' W 118°15'3 5.1
2017-Sep-15 14:54N 33°43' W 118°16'0 0.7
2017-Sep-15 14:27N 33°43' W 118°16'3 6.0
2017-Sep-15 13:59N 33°46' W 118°15'0 0.4
2017-Sep-15 13:30N 33°46' W 118°15'2 3.5
2017-Sep-15 12:59N 33°44' W 118°17'2 3.2
2017-Sep-15 12:30N 33°43' W 118°16'1 1.7
2017-Sep-15 12:00N 33°44' W 118°16'0 0.0
2017-Sep-15 11:29N 33°44' W 118°16'0 0.0
2017-Sep-15 11:00N 33°44' W 118°16'0 0.0
2017-Sep-15 10:29N 33°44' W 118°16'0 0.0
2017-Sep-15 09:59N 33°44' W 118°16'0 0.0
2017-Sep-15 09:30N 33°44' W 118°16'0 0.0
2017-Sep-15 09:00N 33°44' W 118°16'0 0.0
2017-Sep-15 08:30N 33°44' W 118°16'0 0.0
2017-Sep-15 08:00N 33°44' W 118°16'0 0.0
2017-Sep-15 07:30N 33°44' W 118°16'0 0.0
2017-Sep-15 07:00N 33°44' W 118°16'0 0.2
2017-Sep-15 06:31N 33°44' W 118°16'1 2.7
2017-Sep-15 06:00N 33°43' W 118°14'3 5.5
2017-Sep-15 05:31N 33°45' W 118°12'3 5.1
2017-Sep-15 04:56N 33°44' W 118°16'0 0.0
2017-Sep-15 04:30N 33°44' W 118°16'0 0.0
2017-Sep-15 03:59N 33°44' W 118°16'0 0.0
2017-Sep-15 03:29N 33°44' W 118°16'0 0.0
2017-Sep-15 03:00N 33°44' W 118°16'0 0.0
2017-Sep-15 02:29N 33°44' W 118°16'0 0.0
2017-Sep-15 02:00N 33°44' W 118°16'1 1.2
2017-Sep-15 01:30N 33°44' W 118°16'1 1.1
2017-Sep-15 01:00N 33°44' W 118°16'0 0.0
2017-Sep-15 00:30N 33°44' W 118°16'1 2.6
2017-Sep-15 00:00N 33°43' W 118°15'3 5.5
2017-Sep-14 23:30N 33°45' W 118°12'316.3
2017-Sep-14 23:18N 33°45' W 118°16'0 0.3
2017-Sep-14 23:00N 33°45' W 118°16'3377.2
2017-Sep-14 23:00N 33°45' W 118°13'1 2.8
2017-Sep-14 22:30N 33°44' W 118°12'4378.5
2017-Sep-14 22:30N 33°43' W 118°16'2 4.6
2017-Sep-14 22:00N 33°41' W 118°15'5466.8
2017-Sep-14 22:00N 33°44' W 118°10'3 5.4
2017-Sep-14 21:30N 33°43' W 118°13'71232.9
2017-Sep-14 21:30N 33°39' W 118°19'611.6
2017-Sep-14 21:00N 33°44' W 118°16'0 0.0
2017-Sep-14 20:30N 33°44' W 118°16'0 0.0
2017-Sep-14 19:58N 33°44' W 118°16'2 3.4
2017-Sep-14 19:30N 33°45' W 118°16'0 0.0
2017-Sep-14 18:59N 33°45' W 118°16'25108.7
2017-Sep-14 18:45N 33°26' W 118°35'2497.2
2017-Sep-14 18:30N 33°44' W 118°17'1 1.6
2017-Sep-14 18:00N 33°44' W 118°16'1 1.6
2017-Sep-14 17:30N 33°43' W 118°16'2 4.1
2017-Sep-14 17:00N 33°41' W 118°14'3 5.6
2017-Sep-14 16:30N 33°44' W 118°16'0 0.0
2017-Sep-14 16:00N 33°44' W 118°16'23447.6
2017-Sep-14 15:57N 33°25' W 118°33'2351.5
2017-Sep-14 15:30N 33°44' W 118°16'24309.0
2017-Sep-14 15:25N 33°28' W 118°37'2454.8
2017-Sep-14 14:59N 33°44' W 118°16'1853.5
2017-Sep-14 14:38N 33°32' W 118°32'1 7.7
2017-Sep-14 14:30N 33°32' W 118°31'18172.1
2017-Sep-14 14:24N 33°44' W 118°14'2 2.7
2017-Sep-14 13:45N 33°45' W 118°14'0 0.9
2017-Sep-14 13:28N 33°45' W 118°14'3 4.8
2017-Sep-14 12:55N 33°43' W 118°11'8130.7
2017-Sep-14 12:51N 33°39' W 118°19'3 7.6
2017-Sep-14 12:30N 33°41' W 118°17'52218.2
2017-Sep-14 12:30N 33°44' W 118°12'4 7.9
2017-Sep-14 12:00N 33°43' W 118°16'489.4
2017-Sep-14 11:58N 33°45' W 118°12'4 8.2
2017-Sep-14 11:30N 33°45' W 118°16'4579.7
2017-Sep-14 11:30N 33°44' W 118°12'4 7.6
2017-Sep-14 11:00N 33°45' W 118°16'4166.7
2017-Sep-14 10:59N 33°43' W 118°12'3 7.0
2017-Sep-14 10:31N 33°43' W 118°15'2723.1
2017-Sep-14 10:30N 33°45' W 118°16'0 0.0
2017-Sep-14 10:00N 33°45' W 118°16'1201.2
2017-Sep-14 09:59N 33°44' W 118°16'1 2.6
2017-Sep-14 09:30N 33°45' W 118°16'1189.7
2017-Sep-14 09:30N 33°44' W 118°16'1 2.6
2017-Sep-14 09:00N 33°45' W 118°16'14609.6
2017-Sep-14 09:00N 33°44' W 118°16'1 2.5
2017-Sep-14 08:30N 33°45' W 118°16'11542.7
2017-Sep-14 08:30N 33°44' W 118°16'1 2.6
2017-Sep-14 08:00N 33°45' W 118°16'11676.3
2017-Sep-14 08:00N 33°44' W 118°15'0 0.3
2017-Sep-14 07:30N 33°44' W 118°15'1320.8
2017-Sep-14 07:30N 33°45' W 118°16'3 5.4
2017-Sep-14 07:00N 33°43' W 118°15'3260.0
2017-Sep-14 07:00N 33°45' W 118°16'0 0.1
2017-Sep-14 06:30N 33°45' W 118°16'0 0.1
2017-Sep-14 05:59N 33°45' W 118°16'3 8.1
2017-Sep-14 05:38N 33°44' W 118°13'0 0.0
2017-Sep-14 05:30N 33°44' W 118°13'3527.8
2017-Sep-14 05:30N 33°45' W 118°16'3 5.8
2017-Sep-14 05:00N 33°44' W 118°13'31155.8
2017-Sep-14 05:00N 33°45' W 118°16'1 2.7
2017-Sep-14 04:30N 33°44' W 118°16'1545.0
2017-Sep-14 04:30N 33°45' W 118°16'0 0.0
2017-Sep-14 04:00N 33°45' W 118°16'21205.2
2017-Sep-14 04:00N 33°43' W 118°16'2 3.3
2017-Sep-14 03:30N 33°45' W 118°16'11537.7
2017-Sep-14 03:30N 33°45' W 118°16'1 1.7
2017-Sep-14 03:00N 33°45' W 118°16'0284.5
2017-Sep-14 03:00N 33°45' W 118°16'0 0.3
2017-Sep-14 02:30N 33°45' W 118°16'370.4
2017-Sep-14 02:28N 33°43' W 118°14'3 5.9
2017-Sep-14 02:00N 33°45' W 118°16'23774.6
2017-Sep-14 02:00N 33°45' W 118°14'0 0.3
2017-Sep-14 01:30N 33°45' W 118°14'2389.9
2017-Sep-14 01:30N 33°45' W 118°16'0 0.0
2017-Sep-14 01:00N 33°45' W 118°16'3547.0
2017-Sep-14 01:00N 33°45' W 118°12'3 6.7
2017-Sep-14 00:30N 33°45' W 118°16'348.8
2017-Sep-14 00:26N 33°45' W 118°12'1 1.5
2017-Sep-14 00:00N 33°44' W 118°12'3252.6
2017-Sep-14 00:00N 33°45' W 118°16'0 0.0
2017-Sep-13 23:30N 33°45' W 118°16'3426.2
2017-Sep-13 23:30N 33°43' W 118°15'1 2.6
2017-Sep-13 23:01N 33°44' W 118°16'1438.1
2017-Sep-13 23:00N 33°45' W 118°16'0 0.0
2017-Sep-13 22:30N 33°45' W 118°16'1221.8
2017-Sep-13 22:30N 33°44' W 118°16'1 2.7
2017-Sep-13 22:00N 33°43' W 118°15'32443.6
2017-Sep-13 22:00N 33°45' W 118°16'0 0.1
2017-Sep-13 21:30N 33°45' W 118°16'2772.1
2017-Sep-13 21:30N 33°43' W 118°16'1 1.8
2017-Sep-13 21:00N 33°44' W 118°15'2192.6
2017-Sep-13 21:00N 33°45' W 118°16'0 0.0
2017-Sep-13 20:31N 33°45' W 118°16'2197.7
2017-Sep-13 20:30N 33°44' W 118°15'2 4.7
2017-Sep-13 20:00N 33°43' W 118°12'4379.6
2017-Sep-13 20:00N 33°45' W 118°16'0 0.0
2017-Sep-13 19:30N 33°45' W 118°16'519090.8
2017-Sep-13 19:30N 33°44' W 118°10'510.6
2017-Sep-13 19:00N 33°45' W 118°16'6261.3
2017-Sep-13 18:59N 33°41' W 118°11'612.6
2017-Sep-13 18:30N 33°45' W 118°16'64399.9
2017-Sep-13 18:30N 33°41' W 118°11'5 9.4
2017-Sep-13 18:01N 33°44' W 118°16'2107.8
2017-Sep-13 18:00N 33°45' W 118°16'0 0.1
2017-Sep-13 17:30N 33°45' W 118°16'12295.5
2017-Sep-13 17:30N 33°44' W 118°16'1 2.5
2017-Sep-13 17:00N 33°45' W 118°16'12260.6
2017-Sep-13 17:00N 33°44' W 118°16'1 2.6
2017-Sep-13 16:30N 33°45' W 118°16'1201.2
2017-Sep-13 16:30N 33°44' W 118°16'0 0.0
2017-Sep-13 15:59N 33°44' W 118°16'1257.1
2017-Sep-13 15:59N 33°45' W 118°16'0 0.0
2017-Sep-13 15:30N 33°45' W 118°16'33137.1
2017-Sep-13 15:30N 33°43' W 118°15'3 5.2
2017-Sep-13 15:00N 33°45' W 118°16'35071.5
2017-Sep-13 15:00N 33°45' W 118°13'0 0.3
2017-Sep-13 14:30N 33°45' W 118°13'3446.7
2017-Sep-13 14:30N 33°45' W 118°16'3 6.9
2017-Sep-13 14:00N 33°44' W 118°12'3127.9
2017-Sep-13 13:59N 33°45' W 118°16'511.4
2017-Sep-13 13:30N 33°42' W 118°11'56505.4
2017-Sep-13 13:30N 33°45' W 118°16'0 0.0
2017-Sep-13 13:00N 33°45' W 118°16'71155.6
2017-Sep-13 13:00N 33°41' W 118°09'5 9.7
2017-Sep-13 12:30N 33°44' W 118°13'397.3
2017-Sep-13 12:28N 33°45' W 118°16'0 0.0
2017-Sep-13 12:00N 33°45' W 118°16'33402.7
2017-Sep-13 12:00N 33°45' W 118°13'3 5.5
2017-Sep-13 11:30N 33°45' W 118°16'33307.2
2017-Sep-13 11:30N 33°45' W 118°13'3 6.6
2017-Sep-13 11:00N 33°43' W 118°16'312258.0
2017-Sep-13 11:00N 33°46' W 118°13'3 5.6
2017-Sep-13 10:30N 33°43' W 118°14'1264.8
2017-Sep-13 10:30N 33°43' W 118°16'2 4.8
2017-Sep-13 10:01N 33°41' W 118°14'3744.6
2017-Sep-13 10:00N 33°44' W 118°16'612.4
2017-Sep-13 09:31N 33°38' W 118°15'61698.7
2017-Sep-13 09:30N 33°44' W 118°16'1019.5
2017-Sep-13 09:00N 33°34' W 118°16'101070.4
2017-Sep-13 09:00N 33°44' W 118°16'0 0.0
2017-Sep-13 08:30N 33°44' W 118°16'14271.2
2017-Sep-13 08:27N 33°30' W 118°17'1431.7
2017-Sep-13 08:00N 33°44' W 118°16'19112.6
2017-Sep-13 07:50N 33°25' W 118°18'1955.5
2017-Sep-13 07:30N 33°44' W 118°16'22228.8
2017-Sep-13 07:25N 33°22' W 118°18'2254.1
2017-Sep-13 07:00N 33°44' W 118°16'241302.2
2017-Sep-13 06:59N 33°20' W 118°19'0 0.4
2017-Sep-13 06:29N 33°20' W 118°19'25224.5
2017-Sep-13 06:22N 33°44' W 118°12'2554.1
2017-Sep-13 05:55N 33°20' W 118°19'23135.3
2017-Sep-13 05:44N 33°43' W 118°14'23100.8
2017-Sep-13 05:31N 33°20' W 118°19'242488.7
2017-Sep-13 05:30N 33°44' W 118°16'0 0.3
2017-Sep-13 05:00N 33°44' W 118°16'241310.0
2017-Sep-13 04:59N 33°20' W 118°19'0 0.0
2017-Sep-13 04:31N 33°20' W 118°19'242442.0
2017-Sep-13 04:30N 33°44' W 118°16'2347.4
2017-Sep-13 04:01N 33°21' W 118°18'231549.3
2017-Sep-13 04:00N 33°44' W 118°16'0 0.0
2017-Sep-13 03:30N 33°44' W 118°16'21214.9
2017-Sep-13 03:25N 33°23' W 118°18'3 7.7
2017-Sep-13 03:01N 33°26' W 118°17'1821992.8
2017-Sep-13 03:00N 33°44' W 118°16'0 0.0
2017-Sep-13 02:30N 33°44' W 118°16'1370.5
2017-Sep-13 02:19N 33°31' W 118°16'1342.4
2017-Sep-13 02:00N 33°44' W 118°16'112625.2
2017-Sep-13 02:00N 33°33' W 118°16'1121.2
2017-Sep-13 01:30N 33°44' W 118°16'7676.5
2017-Sep-13 01:30N 33°37' W 118°15'4 7.6
2017-Sep-13 01:00N 33°40' W 118°15'5807.2
2017-Sep-13 01:00N 33°46' W 118°16'3 5.4
2017-Sep-13 00:30N 33°43' W 118°16'22785.0
2017-Sep-13 00:30N 33°45' W 118°16'1 1.1
2017-Sep-13 00:00N 33°45' W 118°17'1146.9
2017-Sep-13 00:00N 33°45' W 118°16'1 1.0
2017-Sep-12 23:30N 33°45' W 118°16'1301.1
2017-Sep-12 23:30N 33°45' W 118°16'0 0.0
2017-Sep-12 23:00N 33°45' W 118°16'0 0.0
2017-Sep-12 22:31N 33°45' W 118°16'21858.1
2017-Sep-12 22:30N 33°44' W 118°16'2 3.1
2017-Sep-12 22:01N 33°45' W 118°16'3 5.7
2017-Sep-12 21:31N 33°45' W 118°13'3935.0
2017-Sep-12 21:30N 33°45' W 118°16'4 8.2
2017-Sep-12 21:00N 33°44' W 118°12'43663.7
2017-Sep-12 21:00N 33°45' W 118°16'3 6.7
2017-Sep-12 20:30N 33°45' W 118°12'0 0.0
2017-Sep-12 20:00N 33°45' W 118°12'3633.3
2017-Sep-12 20:00N 33°45' W 118°16'0 0.0
2017-Sep-12 19:30N 33°45' W 118°16'32005.6
2017-Sep-12 19:30N 33°45' W 118°12'3 6.7
2017-Sep-12 19:00N 33°45' W 118°16'379.1
2017-Sep-12 18:58N 33°43' W 118°14'3 5.8
2017-Sep-12 18:30N 33°45' W 118°16'163.0
2017-Sep-12 18:30N 33°44' W 118°17'2 3.8
2017-Sep-12 18:01N 33°46' W 118°16'1341.8
2017-Sep-12 18:00N 33°45' W 118°16'0 0.3
2017-Sep-12 17:31N 33°45' W 118°16'041.4
2017-Sep-12 17:30N 33°45' W 118°16'2 4.0
2017-Sep-12 17:00N 33°43' W 118°16'1160.2
2017-Sep-12 17:00N 33°44' W 118°16'3 5.9
2017-Sep-12 16:30N 33°41' W 118°14'3802.1
2017-Sep-12 16:30N 33°44' W 118°16'613.0
2017-Sep-12 16:01N 33°37' W 118°15'61652.9
2017-Sep-12 16:00N 33°44' W 118°16'0 0.0
2017-Sep-12 15:30N 33°44' W 118°16'10200.2
2017-Sep-12 15:27N 33°33' W 118°16'3 7.4
2017-Sep-12 15:01N 33°30' W 118°16'1529.8
2017-Sep-12 14:30N 33°45' W 118°16'1913424.9
2017-Sep-12 14:30N 33°27' W 118°17'4 7.1
2017-Sep-12 14:00N 33°23' W 118°18'2242.8
2017-Sep-12 13:30N 33°45' W 118°16'2448.9
2017-Sep-12 13:01N 33°20' W 118°18'246270.0
2017-Sep-12 13:00N 33°45' W 118°16'2243.3
2017-Sep-12 12:30N 33°23' W 118°18'2112785.9
2017-Sep-12 12:30N 33°45' W 118°16'1 2.3
2017-Sep-12 12:01N 33°43' W 118°16'16141.6
2017-Sep-12 11:54N 33°28' W 118°17'3 7.5
2017-Sep-12 11:31N 33°31' W 118°16'133295.8
2017-Sep-12 11:30N 33°43' W 118°16'918.2
2017-Sep-12 11:00N 33°34' W 118°15'81593.9
2017-Sep-12 11:00N 33°43' W 118°15'5 9.1
2017-Sep-12 10:30N 33°38' W 118°15'63332.7
2017-Sep-12 10:30N 33°44' W 118°16'2 3.7
2017-Sep-12 10:00N 33°42' W 118°15'23320.5
2017-Sep-12 10:00N 33°44' W 118°16'1 1.3
2017-Sep-12 09:31N 33°44' W 118°17'1788.2
2017-Sep-12 09:30N 33°44' W 118°16'1 2.5
2017-Sep-12 09:00N 33°45' W 118°16'12267.7
2017-Sep-12 09:00N 33°44' W 118°16'0 0.0
2017-Sep-12 08:30N 33°44' W 118°16'1664.6
2017-Sep-12 08:30N 33°45' W 118°16'1 2.6
2017-Sep-12 08:00N 33°44' W 118°16'2 3.1
2017-Sep-12 07:30N 33°45' W 118°16'0 0.7
2017-Sep-12 07:00N 33°46' W 118°17'0 0.0
2017-Sep-12 06:30N 33°46' W 118°17'2 3.7
2017-Sep-12 06:00N 33°44' W 118°16'0 0.0
2017-Sep-12 05:30N 33°44' W 118°16'0 0.0
2017-Sep-12 05:00N 33°44' W 118°16'0 0.0
2017-Sep-12 04:30N 33°44' W 118°16'0 0.0
2017-Sep-12 04:00N 33°44' W 118°16'0 0.0
2017-Sep-12 03:30N 33°44' W 118°16'0 0.0
2017-Sep-12 03:00N 33°44' W 118°16'0 0.0
2017-Sep-12 02:30N 33°44' W 118°16'0 0.0
2017-Sep-12 02:00N 33°44' W 118°16'2 3.9
2017-Sep-12 01:30N 33°46' W 118°17'0 0.1
2017-Sep-12 01:00N 33°46' W 118°17'0 0.0
2017-Sep-12 00:30N 33°46' W 118°17'0 0.1
2017-Sep-12 00:00N 33°46' W 118°17'2 4.5
2017-Sep-11 23:30N 33°43' W 118°16'0 0.9
2017-Sep-11 23:00N 33°44' W 118°16'0 0.0
2017-Sep-11 22:30N 33°44' W 118°16'0 0.0
2017-Sep-11 22:00N 33°44' W 118°16'0 0.0
2017-Sep-11 21:30N 33°44' W 118°16'0 0.0
2017-Sep-11 21:00N 33°44' W 118°16'0 0.0
2017-Sep-11 20:30N 33°44' W 118°16'1 2.7
2017-Sep-11 19:59N 33°43' W 118°14'3 6.2
2017-Sep-11 19:30N 33°44' W 118°11'0 0.6
2017-Sep-11 19:00N 33°44' W 118°12'1 1.4
2017-Sep-11 18:30N 33°44' W 118°12'0 0.3
2017-Sep-11 18:00N 33°44' W 118°12'2 3.0
2017-Sep-11 17:30N 33°43' W 118°14'2 3.5
2017-Sep-11 17:00N 33°44' W 118°16'0 0.2
2017-Sep-11 16:30N 33°44' W 118°16'2 3.1
2017-Sep-11 16:01N 33°43' W 118°14'3 6.8
2017-Sep-11 15:30N 33°46' W 118°13'0 0.3
2017-Sep-11 14:57N 33°46' W 118°13'1 1.8
2017-Sep-11 14:30N 33°46' W 118°13'2 4.1
2017-Sep-11 14:00N 33°44' W 118°12'1 1.9
2017-Sep-11 13:30N 33°44' W 118°11'2 4.2
2017-Sep-11 12:58N 33°45' W 118°13'1 2.8
2017-Sep-11 12:30N 33°46' W 118°13'0 0.7
2017-Sep-11 12:00N 33°46' W 118°13'3 4.9
2017-Sep-11 11:28N 33°44' W 118°13'2 4.0
2017-Sep-11 11:00N 33°44' W 118°16'0 0.0
2017-Sep-11 10:30N 33°44' W 118°16'0 0.0
2017-Sep-11 10:00N 33°44' W 118°16'0 0.0
2017-Sep-11 09:29N 33°44' W 118°16'0 0.0
2017-Sep-11 09:00N 33°44' W 118°16'0 0.0
2017-Sep-11 08:30N 33°44' W 118°16'0 0.0
2017-Sep-11 08:00N 33°44' W 118°16'0 0.0
2017-Sep-11 07:30N 33°44' W 118°16'0 0.0
2017-Sep-11 06:59N 33°44' W 118°16'0 0.0
2017-Sep-11 06:30N 33°44' W 118°16'0 0.0
2017-Sep-11 06:00N 33°44' W 118°16'0 0.0
2017-Sep-11 05:30N 33°44' W 118°16'0 0.0
2017-Sep-11 05:00N 33°44' W 118°16'0 0.0
2017-Sep-11 04:30N 33°44' W 118°16'0 0.0
2017-Sep-11 04:00N 33°44' W 118°16'0 0.0
2017-Sep-11 03:30N 33°44' W 118°16'0 0.0
2017-Sep-11 03:00N 33°44' W 118°16'0 0.0
2017-Sep-11 02:30N 33°44' W 118°16'0 0.0
2017-Sep-11 02:00N 33°44' W 118°16'0 0.8
2017-Sep-11 01:30N 33°43' W 118°16'2 4.7
2017-Sep-11 01:00N 33°44' W 118°13'1 2.2
2017-Sep-11 00:31N 33°46' W 118°13'1 1.1
2017-Sep-11 00:00N 33°45' W 118°13'0 0.4
2017-Sep-10 23:30N 33°45' W 118°13'3 5.0
2017-Sep-10 23:00N 33°44' W 118°16'1 2.7
2017-Sep-10 22:30N 33°43' W 118°15'1 2.9
2017-Sep-10 22:00N 33°44' W 118°13'0 0.0
2017-Sep-10 21:30N 33°44' W 118°13'0 0.0
2017-Sep-10 20:59N 33°44' W 118°13'0 0.0
2017-Sep-10 20:30N 33°44' W 118°13'0 0.0
2017-Sep-10 20:00N 33°44' W 118°13'0 0.1
2017-Sep-10 19:29N 33°44' W 118°13'0 0.1
2017-Sep-10 19:00N 33°44' W 118°13'0 0.0
2017-Sep-10 18:30N 33°44' W 118°13'0 0.0
2017-Sep-10 17:59N 33°44' W 118°13'0 0.1
2017-Sep-10 17:30N 33°44' W 118°13'2 4.3
2017-Sep-10 17:00N 33°43' W 118°16'0 0.9
2017-Sep-10 16:30N 33°44' W 118°16'0 0.0
2017-Sep-10 16:00N 33°44' W 118°16'0 0.0
2017-Sep-10 15:30N 33°44' W 118°16'0 0.0
2017-Sep-10 15:00N 33°44' W 118°16'3 2.9
2017-Sep-10 14:00N 33°45' W 118°12'3 6.4
2017-Sep-10 13:30N 33°43' W 118°15'1 1.8
2017-Sep-10 13:00N 33°44' W 118°16'0 0.0
2017-Sep-10 12:30N 33°44' W 118°16'0 0.0
2017-Sep-10 12:00N 33°44' W 118°16'0 0.0
2017-Sep-10 11:30N 33°44' W 118°16'0 0.0
2017-Sep-10 11:00N 33°44' W 118°16'0 0.0
2017-Sep-10 10:30N 33°44' W 118°16'0 0.3
2017-Sep-10 10:01N 33°44' W 118°16'4 7.2
2017-Sep-10 09:30N 33°44' W 118°11'2 3.3
2017-Sep-10 09:00N 33°43' W 118°13'3 5.9
2017-Sep-10 08:30N 33°45' W 118°16'0 0.2
2017-Sep-10 08:00N 33°45' W 118°16'0 0.8
2017-Sep-10 07:30N 33°46' W 118°16'2 4.3
2017-Sep-10 07:00N 33°43' W 118°16'1 1.2
2017-Sep-10 06:30N 33°44' W 118°16'0 0.0
2017-Sep-10 06:00N 33°44' W 118°16'0 0.0
2017-Sep-10 05:30N 33°44' W 118°16'0 0.0
2017-Sep-10 05:00N 33°44' W 118°16'0 0.0
2017-Sep-10 04:30N 33°44' W 118°16'2 3.1
2017-Sep-10 04:00N 33°45' W 118°16'1 1.0
2017-Sep-10 03:30N 33°46' W 118°16'0 0.4
2017-Sep-10 03:00N 33°45' W 118°16'1 1.8
2017-Sep-10 02:30N 33°45' W 118°16'1 2.3
2017-Sep-10 02:00N 33°44' W 118°16'1 1.2
2017-Sep-10 01:30N 33°44' W 118°16'0 0.0
2017-Sep-10 01:00N 33°44' W 118°16'0 0.0
2017-Sep-10 00:30N 33°44' W 118°16'0 0.0
2017-Sep-10 00:00N 33°44' W 118°16'0 0.0
2017-Sep-09 23:30N 33°44' W 118°16'0 0.0
2017-Sep-09 23:00N 33°44' W 118°16'0 0.0
2017-Sep-09 22:29N 33°44' W 118°16'0 0.0
2017-Sep-09 22:00N 33°44' W 118°16'0 0.0
2017-Sep-09 21:30N 33°44' W 118°16'0 0.0
2017-Sep-09 21:00N 33°44' W 118°16'0 0.0
2017-Sep-09 20:30N 33°44' W 118°16'  
Track history (hours):
 
Tides and Currents Weather Stations Pressure Air Temp Water Temp Dewpoint Dewpoint Depression Visibility Wind Speed Wind Dir Waves Ship Positions

Lela Franco

Owner: Harley Marine Services, Inc, Seattle, WA. More information available from US FCC via Universal Licensing System and Coast Guard Vessel Documentation Center.

Last reported at 2017-Sep-19 20:30 UTC. Time now 2017-Sep-19 20:42 UTC.
Position N 33°43' W 118°14'.

Length 18 m; draft 3 m.

Type: Towing. MMSI: 366926730.

Date/timePositionNaut miles runAvg speedWind from/ knotsBaromVisibWave heightAir tempDewpointWater temp
2017-Sep-19 20:30N 33°43' W 118°14'1 2.8
2017-Sep-19 20:00N 33°44' W 118°15'1 2.0
2017-Sep-19 19:30N 33°43' W 118°16'1 1.3
2017-Sep-19 18:55N 33°43' W 118°15'1 2.8
2017-Sep-19 18:27N 33°44' W 118°16'0 0.0
2017-Sep-19 18:00N 33°44' W 118°16'0 0.0
2017-Sep-19 17:29N 33°44' W 118°16'0 0.0
2017-Sep-19 17:00N 33°44' W 118°16'1063.9
2017-Sep-19 16:51N 33°35' W 118°21'1027.7
2017-Sep-19 16:29N 33°44' W 118°16'7205.9
2017-Sep-19 16:27N 33°37' W 118°19'5 7.0
2017-Sep-19 15:47N 33°41' W 118°16'2 5.4
2017-Sep-19 15:24N 33°43' W 118°16'1 4.0
2017-Sep-19 15:10N 33°44' W 118°16'0 0.0
2017-Sep-19 14:56N 33°44' W 118°16'3 1.2
2017-Sep-19 12:40N 33°45' W 118°13'0 0.5
2017-Sep-19 12:08N 33°46' W 118°13'0 1.0
2017-Sep-19 11:57N 33°46' W 118°13'1 1.1
2017-Sep-19 11:18N 33°45' W 118°13'3 4.6
2017-Sep-19 10:37N 33°43' W 118°16'1 8.8
2017-Sep-19 10:27N 33°44' W 118°17'1 3.2
2017-Sep-19 09:59N 33°46' W 118°16'0 0.3
2017-Sep-19 09:28N 33°46' W 118°15'1 1.7
2017-Sep-19 08:41N 33°46' W 118°14'0 0.0
2017-Sep-19 08:27N 33°46' W 118°14'3 2.5
2017-Sep-19 07:05N 33°43' W 118°15'1 7.5
2017-Sep-19 07:00N 33°43' W 118°16'0 0.7
2017-Sep-19 06:23N 33°44' W 118°16'0 0.0
2017-Sep-19 05:58N 33°44' W 118°16'0 0.0
2017-Sep-19 05:29N 33°44' W 118°16'0 0.0
2017-Sep-19 05:00N 33°44' W 118°16'0 0.0
2017-Sep-19 04:24N 33°44' W 118°16'0 0.0
2017-Sep-19 03:58N 33°44' W 118°16'0 0.0
2017-Sep-19 03:25N 33°44' W 118°16'0 0.0
2017-Sep-19 03:00N 33°44' W 118°16'1 2.2
2017-Sep-19 02:30N 33°45' W 118°16'0 0.6
2017-Sep-19 01:57N 33°45' W 118°16'2 3.8
2017-Sep-19 01:30N 33°43' W 118°16'1 1.2
2017-Sep-19 00:57N 33°44' W 118°16'0 0.0
2017-Sep-19 00:30N 33°44' W 118°16'0 0.0
2017-Sep-19 00:00N 33°44' W 118°16'0 0.0
2017-Sep-18 23:30N 33°44' W 118°16'0 0.0
2017-Sep-18 23:00N 33°44' W 118°16'0 0.4
2017-Sep-18 22:29N 33°44' W 118°16'2 3.2
2017-Sep-18 21:57N 33°45' W 118°16'0 0.9
2017-Sep-18 21:30N 33°46' W 118°16'0 0.1
2017-Sep-18 20:56N 33°46' W 118°16'0 0.9
2017-Sep-18 20:30N 33°46' W 118°15'2 3.5
2017-Sep-18 20:00N 33°45' W 118°13'0 0.1
2017-Sep-18 19:30N 33°45' W 118°13'1 1.6
2017-Sep-18 18:58N 33°44' W 118°13'2 4.4
2017-Sep-18 18:30N 33°44' W 118°10'0 0.6
2017-Sep-18 18:00N 33°44' W 118°10'3 6.1
2017-Sep-18 17:30N 33°43' W 118°14'2 2.9
2017-Sep-18 16:54N 33°44' W 118°16'0 0.0
2017-Sep-18 16:30N 33°44' W 118°16'8 4.1
2017-Sep-18 14:38N 33°43' W 118°06'0 0.4
2017-Sep-18 14:30N 33°43' W 118°06'1 2.0
2017-Sep-18 13:48N 33°44' W 118°08'411.0
2017-Sep-18 13:26N 33°45' W 118°13'0 0.5
2017-Sep-18 12:25N 33°45' W 118°13'0 0.5
2017-Sep-18 11:54N 33°45' W 118°13'2 5.6
2017-Sep-18 11:30N 33°44' W 118°11'3 4.7
2017-Sep-18 10:51N 33°43' W 118°15'1 2.7
2017-Sep-18 10:20N 33°44' W 118°16'0 0.0
2017-Sep-18 09:48N 33°44' W 118°16'0 0.0
2017-Sep-18 09:29N 33°44' W 118°16'0 0.0
2017-Sep-18 08:58N 33°44' W 118°16'0 0.0
2017-Sep-18 08:29N 33°44' W 118°16'0 0.0
2017-Sep-18 07:57N 33°44' W 118°16'0 0.0
2017-Sep-18 07:24N 33°44' W 118°16'0 0.0
2017-Sep-18 07:00N 33°44' W 118°16'0 0.0
2017-Sep-18 06:25N 33°44' W 118°16'1 1.4
2017-Sep-18 05:59N 33°44' W 118°16'2 3.9
2017-Sep-18 05:26N 33°46' W 118°16'2 5.5
2017-Sep-18 05:00N 33°44' W 118°16'1 1.2
2017-Sep-18 04:30N 33°44' W 118°16'0 0.1
2017-Sep-18 03:57N 33°44' W 118°16'2 4.4
2017-Sep-18 03:29N 33°44' W 118°13'1 2.1
2017-Sep-18 02:59N 33°45' W 118°13'1 3.0
2017-Sep-18 02:30N 33°46' W 118°13'0 0.0
2017-Sep-18 01:55N 33°46' W 118°13'0 0.0
2017-Sep-18 01:29N 33°46' W 118°13'0 0.0
2017-Sep-18 00:58N 33°46' W 118°13'0 0.1
2017-Sep-18 00:27N 33°46' W 118°13'3 7.1
2017-Sep-18 00:00N 33°43' W 118°14'1 2.8
2017-Sep-17 23:30N 33°44' W 118°16'0 0.9
2017-Sep-17 22:58N 33°44' W 118°15'1 1.3
2017-Sep-17 22:30N 33°44' W 118°16'0 0.0
2017-Sep-17 22:00N 33°44' W 118°16'0 0.0
2017-Sep-17 21:30N 33°44' W 118°16'2 3.4
2017-Sep-17 21:00N 33°43' W 118°14'3 6.1
2017-Sep-17 20:30N 33°46' W 118°13'2 3.0
2017-Sep-17 19:58N 33°45' W 118°13'1 1.3
2017-Sep-17 19:30N 33°44' W 118°13'2 4.4
2017-Sep-17 18:59N 33°44' W 118°16'0 0.0
2017-Sep-17 18:28N 33°44' W 118°16'0 0.0
2017-Sep-17 18:00N 33°44' W 118°16'0 0.0
2017-Sep-17 17:29N 33°44' W 118°16'0 0.0
2017-Sep-17 16:51N 33°44' W 118°16'0 0.0
2017-Sep-17 16:29N 33°44' W 118°16'0 0.0
2017-Sep-17 15:08N 33°44' W 118°16'0 0.0
2017-Sep-17 14:58N 33°44' W 118°16'1 0.8
2017-Sep-17 14:10N 33°43' W 118°16'2 1.2
2017-Sep-17 12:10N 33°46' W 118°16'0 0.0
2017-Sep-17 11:23N 33°46' W 118°16'3 4.4
2017-Sep-17 10:47N 33°43' W 118°16'3 9.9
2017-Sep-17 10:31N 33°44' W 118°13'1 1.8
2017-Sep-17 09:54N 33°44' W 118°12'1 2.8
2017-Sep-17 09:30N 33°45' W 118°13'0 0.0
2017-Sep-17 08:57N 33°45' W 118°13'0 0.0
2017-Sep-17 08:27N 33°45' W 118°13'0 0.0
2017-Sep-17 08:00N 33°45' W 118°13'0 0.0
2017-Sep-17 07:30N 33°45' W 118°13'0 0.0
2017-Sep-17 06:57N 33°45' W 118°13'0 0.0
2017-Sep-17 06:29N 33°45' W 118°13'0 0.5
2017-Sep-17 05:58N 33°45' W 118°13'1 1.3
2017-Sep-17 05:23N 33°44' W 118°13'1 2.8
2017-Sep-17 04:59N 33°45' W 118°12'3 6.3
2017-Sep-17 04:30N 33°44' W 118°16'0 0.7
2017-Sep-17 03:59N 33°44' W 118°16'0 0.0
2017-Sep-17 03:30N 33°44' W 118°16'0 0.0
2017-Sep-17 02:58N 33°44' W 118°16'0 1.1
2017-Sep-17 02:30N 33°43' W 118°16'2 3.6
2017-Sep-17 02:00N 33°45' W 118°16'0 0.9
2017-Sep-17 01:27N 33°46' W 118°17'1 1.1
2017-Sep-17 00:57N 33°45' W 118°16'2 5.1
2017-Sep-17 00:30N 33°43' W 118°16'3 5.7
2017-Sep-17 00:00N 33°45' W 118°13'0 0.5
2017-Sep-16 23:30N 33°45' W 118°13'0 0.0
2017-Sep-16 22:58N 33°45' W 118°13'0 0.0
2017-Sep-16 22:30N 33°45' W 118°13'0 0.0
2017-Sep-16 22:00N 33°45' W 118°13'0 0.0
2017-Sep-16 21:30N 33°45' W 118°13'0 0.0
2017-Sep-16 21:00N 33°45' W 118°13'0 0.0
2017-Sep-16 20:28N 33°45' W 118°13'0 0.9
2017-Sep-16 20:00N 33°45' W 118°12'1 2.2
2017-Sep-16 19:29N 33°45' W 118°11'0 0.3
2017-Sep-16 19:00N 33°45' W 118°11'3 5.3
2017-Sep-16 18:24N 33°43' W 118°14'2 3.2
2017-Sep-16 17:54N 33°44' W 118°16'0 0.0
2017-Sep-16 17:30N 33°44' W 118°16'0 0.0
2017-Sep-16 16:55N 33°44' W 118°16'0 0.0
2017-Sep-16 16:27N 33°44' W 118°16'0 0.0
2017-Sep-16 15:59N 33°44' W 118°16'1 0.3
2017-Sep-16 14:15N 33°44' W 118°16'2 5.3
2017-Sep-16 13:55N 33°45' W 118°16'0 0.1
2017-Sep-16 13:26N 33°45' W 118°16'2 3.4
2017-Sep-16 12:57N 33°44' W 118°16'2 4.1
2017-Sep-16 12:29N 33°43' W 118°15'1 1.3
2017-Sep-16 11:48N 33°43' W 118°16'0 0.5
2017-Sep-16 11:18N 33°43' W 118°16'0 0.6
2017-Sep-16 10:52N 33°44' W 118°16'0 0.8
2017-Sep-16 10:26N 33°44' W 118°15'0 0.4
2017-Sep-16 09:54N 33°44' W 118°16'0 0.0
2017-Sep-16 09:28N 33°44' W 118°16'0 0.0
2017-Sep-16 08:50N 33°44' W 118°16'1 2.6
2017-Sep-16 08:30N 33°44' W 118°17'1 1.0
2017-Sep-16 07:53N 33°45' W 118°16'2 6.2
2017-Sep-16 07:29N 33°43' W 118°15'3 5.6
2017-Sep-16 06:59N 33°45' W 118°12'3 6.2
2017-Sep-16 06:30N 33°44' W 118°16'0 0.1
2017-Sep-16 06:00N 33°44' W 118°16'2 4.5
2017-Sep-16 05:30N 33°44' W 118°13'2 3.8
2017-Sep-16 05:00N 33°46' W 118°13'0 0.9
2017-Sep-16 04:30N 33°46' W 118°13'1 2.9
2017-Sep-16 04:00N 33°45' W 118°13'3 5.5
2017-Sep-16 03:30N 33°42' W 118°11'1 2.8
2017-Sep-16 03:00N 33°41' W 118°10'1 2.4
2017-Sep-16 02:30N 33°41' W 118°08'0 0.8
2017-Sep-16 01:59N 33°41' W 118°08'3 6.4
2017-Sep-16 01:30N 33°42' W 118°12'3 6.6
2017-Sep-16 01:00N 33°43' W 118°15'1 2.2
2017-Sep-16 00:30N 33°44' W 118°16'0 0.0
2017-Sep-16 00:00N 33°44' W 118°16'0 0.0
2017-Sep-15 23:30N 33°44' W 118°16'3 5.6
2017-Sep-15 23:00N 33°43' W 118°12'4 8.3
2017-Sep-15 22:30N 33°44' W 118°07'2 3.1
2017-Sep-15 21:59N 33°44' W 118°06'1 1.5
2017-Sep-15 21:30N 33°44' W 118°06'3 6.2
2017-Sep-15 21:00N 33°44' W 118°10'4 6.5
2017-Sep-15 20:28N 33°43' W 118°14'2 3.7
2017-Sep-15 20:00N 33°44' W 118°16'0 0.0
2017-Sep-15 19:29N 33°44' W 118°16'0 0.3
2017-Sep-15 18:59N 33°44' W 118°16'0 0.0
2017-Sep-15 18:30N 33°44' W 118°16'0 0.0
2017-Sep-15 17:59N 33°44' W 118°16'0 0.0
2017-Sep-15 17:28N 33°44' W 118°16'0 0.0
2017-Sep-15 16:58N 33°44' W 118°16'0 0.0
2017-Sep-15 16:30N 33°44' W 118°16'1 1.8
2017-Sep-15 16:00N 33°44' W 118°17'2 4.1
2017-Sep-15 15:28N 33°46' W 118°15'3 5.1
2017-Sep-15 14:54N 33°43' W 118°16'0 0.7
2017-Sep-15 14:27N 33°43' W 118°16'3 6.0
2017-Sep-15 13:59N 33°46' W 118°15'0 0.4
2017-Sep-15 13:30N 33°46' W 118°15'2 3.5
2017-Sep-15 12:59N 33°44' W 118°17'2 3.2
2017-Sep-15 12:30N 33°43' W 118°16'1 1.7
2017-Sep-15 12:00N 33°44' W 118°16'0 0.0
2017-Sep-15 11:29N 33°44' W 118°16'0 0.0
2017-Sep-15 11:00N 33°44' W 118°16'0 0.0
2017-Sep-15 10:29N 33°44' W 118°16'0 0.0
2017-Sep-15 09:59N 33°44' W 118°16'0 0.0
2017-Sep-15 09:30N 33°44' W 118°16'0 0.0
2017-Sep-15 09:00N 33°44' W 118°16'0 0.0
2017-Sep-15 08:30N 33°44' W 118°16'0 0.0
2017-Sep-15 08:00N 33°44' W 118°16'0 0.0
2017-Sep-15 07:30N 33°44' W 118°16'0 0.0
2017-Sep-15 07:00N 33°44' W 118°16'0 0.2
2017-Sep-15 06:31N 33°44' W 118°16'1 2.7
2017-Sep-15 06:00N 33°43' W 118°14'3 5.5
2017-Sep-15 05:31N 33°45' W 118°12'3 5.1
2017-Sep-15 04:56N 33°44' W 118°16'0 0.0
2017-Sep-15 04:30N 33°44' W 118°16'0 0.0
2017-Sep-15 03:59N 33°44' W 118°16'0 0.0
2017-Sep-15 03:29N 33°44' W 118°16'0 0.0
2017-Sep-15 03:00N 33°44' W 118°16'0 0.0
2017-Sep-15 02:29N 33°44' W 118°16'0 0.0
2017-Sep-15 02:00N 33°44' W 118°16'1 1.2
2017-Sep-15 01:30N 33°44' W 118°16'1 1.1
2017-Sep-15 01:00N 33°44' W 118°16'0 0.0
2017-Sep-15 00:30N 33°44' W 118°16'1 2.6
2017-Sep-15 00:00N 33°43' W 118°15'3 5.5
2017-Sep-14 23:30N 33°45' W 118°12'316.3
2017-Sep-14 23:18N 33°45' W 118°16'0 0.3
2017-Sep-14 23:00N 33°45' W 118°16'3377.2
2017-Sep-14 23:00N 33°45' W 118°13'1 2.8
2017-Sep-14 22:30N 33°44' W 118°12'4378.5
2017-Sep-14 22:30N 33°43' W 118°16'2 4.6
2017-Sep-14 22:00N 33°41' W 118°15'5466.8
2017-Sep-14 22:00N 33°44' W 118°10'3 5.4
2017-Sep-14 21:30N 33°43' W 118°13'71232.9
2017-Sep-14 21:30N 33°39' W 118°19'611.6
2017-Sep-14 21:00N 33°44' W 118°16'0 0.0
2017-Sep-14 20:30N 33°44' W 118°16'0 0.0
2017-Sep-14 19:58N 33°44' W 118°16'2 3.4
2017-Sep-14 19:30N 33°45' W 118°16'0 0.0
2017-Sep-14 18:59N 33°45' W 118°16'25108.7
2017-Sep-14 18:45N 33°26' W 118°35'2497.2
2017-Sep-14 18:30N 33°44' W 118°17'1 1.6
2017-Sep-14 18:00N 33°44' W 118°16'1 1.6
2017-Sep-14 17:30N 33°43' W 118°16'2 4.1
2017-Sep-14 17:00N 33°41' W 118°14'3 5.6
2017-Sep-14 16:30N 33°44' W 118°16'0 0.0
2017-Sep-14 16:00N 33°44' W 118°16'23447.6
2017-Sep-14 15:57N 33°25' W 118°33'2351.5
2017-Sep-14 15:30N 33°44' W 118°16'24309.0
2017-Sep-14 15:25N 33°28' W 118°37'2454.8
2017-Sep-14 14:59N 33°44' W 118°16'1853.5
2017-Sep-14 14:38N 33°32' W 118°32'1 7.7
2017-Sep-14 14:30N 33°32' W 118°31'18172.1
2017-Sep-14 14:24N 33°44' W 118°14'2 2.7
2017-Sep-14 13:45N 33°45' W 118°14'0 0.9
2017-Sep-14 13:28N 33°45' W 118°14'3 4.8
2017-Sep-14 12:55N 33°43' W 118°11'8130.7
2017-Sep-14 12:51N 33°39' W 118°19'3 7.6
2017-Sep-14 12:30N 33°41' W 118°17'52218.2
2017-Sep-14 12:30N 33°44' W 118°12'4 7.9
2017-Sep-14 12:00N 33°43' W 118°16'489.4
2017-Sep-14 11:58N 33°45' W 118°12'4 8.2
2017-Sep-14 11:30N 33°45' W 118°16'4579.7
2017-Sep-14 11:30N 33°44' W 118°12'4 7.6
2017-Sep-14 11:00N 33°45' W 118°16'4166.7
2017-Sep-14 10:59N 33°43' W 118°12'3 7.0
2017-Sep-14 10:31N 33°43' W 118°15'2723.1
2017-Sep-14 10:30N 33°45' W 118°16'0 0.0
2017-Sep-14 10:00N 33°45' W 118°16'1201.2
2017-Sep-14 09:59N 33°44' W 118°16'1 2.6
2017-Sep-14 09:30N 33°45' W 118°16'1189.7
2017-Sep-14 09:30N 33°44' W 118°16'1 2.6
2017-Sep-14 09:00N 33°45' W 118°16'14609.6
2017-Sep-14 09:00N 33°44' W 118°16'1 2.5
2017-Sep-14 08:30N 33°45' W 118°16'11542.7
2017-Sep-14 08:30N 33°44' W 118°16'1 2.6
2017-Sep-14 08:00N 33°45' W 118°16'11676.3
2017-Sep-14 08:00N 33°44' W 118°15'0 0.3
2017-Sep-14 07:30N 33°44' W 118°15'1320.8
2017-Sep-14 07:30N 33°45' W 118°16'3 5.4
2017-Sep-14 07:00N 33°43' W 118°15'3260.0
2017-Sep-14 07:00N 33°45' W 118°16'0 0.1
2017-Sep-14 06:30N 33°45' W 118°16'0 0.1
2017-Sep-14 05:59N 33°45' W 118°16'3 8.1
2017-Sep-14 05:38N 33°44' W 118°13'0 0.0
2017-Sep-14 05:30N 33°44' W 118°13'3527.8
2017-Sep-14 05:30N 33°45' W 118°16'3 5.8
2017-Sep-14 05:00N 33°44' W 118°13'31155.8
2017-Sep-14 05:00N 33°45' W 118°16'1 2.7
2017-Sep-14 04:30N 33°44' W 118°16'1545.0
2017-Sep-14 04:30N 33°45' W 118°16'0 0.0
2017-Sep-14 04:00N 33°45' W 118°16'21205.2
2017-Sep-14 04:00N 33°43' W 118°16'2 3.3
2017-Sep-14 03:30N 33°45' W 118°16'11537.7
2017-Sep-14 03:30N 33°45' W 118°16'1 1.7
2017-Sep-14 03:00N 33°45' W 118°16'0284.5
2017-Sep-14 03:00N 33°45' W 118°16'0 0.3
2017-Sep-14 02:30N 33°45' W 118°16'370.4
2017-Sep-14 02:28N 33°43' W 118°14'3 5.9
2017-Sep-14 02:00N 33°45' W 118°16'23774.6
2017-Sep-14 02:00N 33°45' W 118°14'0 0.3
2017-Sep-14 01:30N 33°45' W 118°14'2389.9
2017-Sep-14 01:30N 33°45' W 118°16'0 0.0
2017-Sep-14 01:00N 33°45' W 118°16'3547.0
2017-Sep-14 01:00N 33°45' W 118°12'3 6.7
2017-Sep-14 00:30N 33°45' W 118°16'348.8
2017-Sep-14 00:26N 33°45' W 118°12'1 1.5
2017-Sep-14 00:00N 33°44' W 118°12'3252.6
2017-Sep-14 00:00N 33°45' W 118°16'0 0.0
2017-Sep-13 23:30N 33°45' W 118°16'3426.2
2017-Sep-13 23:30N 33°43' W 118°15'1 2.6
2017-Sep-13 23:01N 33°44' W 118°16'1438.1
2017-Sep-13 23:00N 33°45' W 118°16'0 0.0
2017-Sep-13 22:30N 33°45' W 118°16'1221.8
2017-Sep-13 22:30N 33°44' W 118°16'1 2.7
2017-Sep-13 22:00N 33°43' W 118°15'32443.6
2017-Sep-13 22:00N 33°45' W 118°16'0 0.1
2017-Sep-13 21:30N 33°45' W 118°16'2772.1
2017-Sep-13 21:30N 33°43' W 118°16'1 1.8
2017-Sep-13 21:00N 33°44' W 118°15'2192.6
2017-Sep-13 21:00N 33°45' W 118°16'0 0.0
2017-Sep-13 20:31N 33°45' W 118°16'2197.7
2017-Sep-13 20:30N 33°44' W 118°15'2 4.7
2017-Sep-13 20:00N 33°43' W 118°12'4379.6
2017-Sep-13 20:00N 33°45' W 118°16'0 0.0
2017-Sep-13 19:30N 33°45' W 118°16'519090.8
2017-Sep-13 19:30N 33°44' W 118°10'510.6
2017-Sep-13 19:00N 33°45' W 118°16'6261.3
2017-Sep-13 18:59N 33°41' W 118°11'612.6
2017-Sep-13 18:30N 33°45' W 118°16'64399.9
2017-Sep-13 18:30N 33°41' W 118°11'5 9.4
2017-Sep-13 18:01N 33°44' W 118°16'2107.8
2017-Sep-13 18:00N 33°45' W 118°16'0 0.1
2017-Sep-13 17:30N 33°45' W 118°16'12295.5
2017-Sep-13 17:30N 33°44' W 118°16'1 2.5
2017-Sep-13 17:00N 33°45' W 118°16'12260.6
2017-Sep-13 17:00N 33°44' W 118°16'1 2.6
2017-Sep-13 16:30N 33°45' W 118°16'1201.2
2017-Sep-13 16:30N 33°44' W 118°16'0 0.0
2017-Sep-13 15:59N 33°44' W 118°16'1257.1
2017-Sep-13 15:59N 33°45' W 118°16'0 0.0
2017-Sep-13 15:30N 33°45' W 118°16'33137.1
2017-Sep-13 15:30N 33°43' W 118°15'3 5.2
2017-Sep-13 15:00N 33°45' W 118°16'35071.5
2017-Sep-13 15:00N 33°45' W 118°13'0 0.3
2017-Sep-13 14:30N 33°45' W 118°13'3446.7
2017-Sep-13 14:30N 33°45' W 118°16'3 6.9
2017-Sep-13 14:00N 33°44' W 118°12'3127.9
2017-Sep-13 13:59N 33°45' W 118°16'511.4
2017-Sep-13 13:30N 33°42' W 118°11'56505.4
2017-Sep-13 13:30N 33°45' W 118°16'0 0.0
2017-Sep-13 13:00N 33°45' W 118°16'71155.6
2017-Sep-13 13:00N 33°41' W 118°09'5 9.7
2017-Sep-13 12:30N 33°44' W 118°13'397.3
2017-Sep-13 12:28N 33°45' W 118°16'0 0.0
2017-Sep-13 12:00N 33°45' W 118°16'33402.7
2017-Sep-13 12:00N 33°45' W 118°13'3 5.5
2017-Sep-13 11:30N 33°45' W 118°16'33307.2
2017-Sep-13 11:30N 33°45' W 118°13'3 6.6
2017-Sep-13 11:00N 33°43' W 118°16'312258.0
2017-Sep-13 11:00N 33°46' W 118°13'3 5.6
2017-Sep-13 10:30N 33°43' W 118°14'1264.8
2017-Sep-13 10:30N 33°43' W 118°16'2 4.8
2017-Sep-13 10:01N 33°41' W 118°14'3744.6
2017-Sep-13 10:00N 33°44' W 118°16'612.4
2017-Sep-13 09:31N 33°38' W 118°15'61698.7
2017-Sep-13 09:30N 33°44' W 118°16'1019.5
2017-Sep-13 09:00N 33°34' W 118°16'101070.4
2017-Sep-13 09:00N 33°44' W 118°16'0 0.0
2017-Sep-13 08:30N 33°44' W 118°16'14271.2
2017-Sep-13 08:27N 33°30' W 118°17'1431.7
2017-Sep-13 08:00N 33°44' W 118°16'19112.6
2017-Sep-13 07:50N 33°25' W 118°18'1955.5
2017-Sep-13 07:30N 33°44' W 118°16'22228.8
2017-Sep-13 07:25N 33°22' W 118°18'2254.1
2017-Sep-13 07:00N 33°44' W 118°16'241302.2
2017-Sep-13 06:59N 33°20' W 118°19'0 0.4
2017-Sep-13 06:29N 33°20' W 118°19'25224.5
2017-Sep-13 06:22N 33°44' W 118°12'2554.1
2017-Sep-13 05:55N 33°20' W 118°19'23135.3
2017-Sep-13 05:44N 33°43' W 118°14'23100.8
2017-Sep-13 05:31N 33°20' W 118°19'242488.7
2017-Sep-13 05:30N 33°44' W 118°16'0 0.3
2017-Sep-13 05:00N 33°44' W 118°16'241310.0
2017-Sep-13 04:59N 33°20' W 118°19'0 0.0
2017-Sep-13 04:31N 33°20' W 118°19'242442.0
2017-Sep-13 04:30N 33°44' W 118°16'2347.4
2017-Sep-13 04:01N 33°21' W 118°18'231549.3
2017-Sep-13 04:00N 33°44' W 118°16'0 0.0
2017-Sep-13 03:30N 33°44' W 118°16'21214.9
2017-Sep-13 03:25N 33°23' W 118°18'3 7.7
2017-Sep-13 03:01N 33°26' W 118°17'1821992.8
2017-Sep-13 03:00N 33°44' W 118°16'0 0.0
2017-Sep-13 02:30N 33°44' W 118°16'1370.5
2017-Sep-13 02:19N 33°31' W 118°16'1342.4
2017-Sep-13 02:00N 33°44' W 118°16'112625.2
2017-Sep-13 02:00N 33°33' W 118°16'1121.2
2017-Sep-13 01:30N 33°44' W 118°16'7676.5
2017-Sep-13 01:30N 33°37' W 118°15'4 7.6
2017-Sep-13 01:00N 33°40' W 118°15'5807.2
2017-Sep-13 01:00N 33°46' W 118°16'3 5.4
2017-Sep-13 00:30N 33°43' W 118°16'22785.0
2017-Sep-13 00:30N 33°45' W 118°16'1 1.1
2017-Sep-13 00:00N 33°45' W 118°17'1146.9
2017-Sep-13 00:00N 33°45' W 118°16'1 1.0
2017-Sep-12 23:30N 33°45' W 118°16'1301.1
2017-Sep-12 23:30N 33°45' W 118°16'0 0.0
2017-Sep-12 23:00N 33°45' W 118°16'0 0.0
2017-Sep-12 22:31N 33°45' W 118°16'21858.1
2017-Sep-12 22:30N 33°44' W 118°16'2 3.1
2017-Sep-12 22:01N 33°45' W 118°16'3 5.7
2017-Sep-12 21:31N 33°45' W 118°13'3935.0
2017-Sep-12 21:30N 33°45' W 118°16'4 8.2
2017-Sep-12 21:00N 33°44' W 118°12'43663.7
2017-Sep-12 21:00N 33°45' W 118°16'3 6.7
2017-Sep-12 20:30N 33°45' W 118°12'0 0.0
2017-Sep-12 20:00N 33°45' W 118°12'3633.3
2017-Sep-12 20:00N 33°45' W 118°16'0 0.0
2017-Sep-12 19:30N 33°45' W 118°16'32005.6
2017-Sep-12 19:30N 33°45' W 118°12'3 6.7
2017-Sep-12 19:00N 33°45' W 118°16'379.1
2017-Sep-12 18:58N 33°43' W 118°14'3 5.8
2017-Sep-12 18:30N 33°45' W 118°16'163.0
2017-Sep-12 18:30N 33°44' W 118°17'2 3.8
2017-Sep-12 18:01N 33°46' W 118°16'1341.8
2017-Sep-12 18:00N 33°45' W 118°16'0 0.3
2017-Sep-12 17:31N 33°45' W 118°16'041.4
2017-Sep-12 17:30N 33°45' W 118°16'2 4.0
2017-Sep-12 17:00N 33°43' W 118°16'1160.2
2017-Sep-12 17:00N 33°44' W 118°16'3 5.9
2017-Sep-12 16:30N 33°41' W 118°14'3802.1
2017-Sep-12 16:30N 33°44' W 118°16'613.0
2017-Sep-12 16:01N 33°37' W 118°15'61652.9
2017-Sep-12 16:00N 33°44' W 118°16'0 0.0
2017-Sep-12 15:30N 33°44' W 118°16'10200.2
2017-Sep-12 15:27N 33°33' W 118°16'3 7.4
2017-Sep-12 15:01N 33°30' W 118°16'1529.8
2017-Sep-12 14:30N 33°45' W 118°16'1913424.9
2017-Sep-12 14:30N 33°27' W 118°17'4 7.1
2017-Sep-12 14:00N 33°23' W 118°18'2242.8
2017-Sep-12 13:30N 33°45' W 118°16'2448.9
2017-Sep-12 13:01N 33°20' W 118°18'246270.0
2017-Sep-12 13:00N 33°45' W 118°16'2243.3
2017-Sep-12 12:30N 33°23' W 118°18'2112785.9
2017-Sep-12 12:30N 33°45' W 118°16'1 2.3
2017-Sep-12 12:01N 33°43' W 118°16'16141.6
2017-Sep-12 11:54N 33°28' W 118°17'3 7.5
2017-Sep-12 11:31N 33°31' W 118°16'133295.8
2017-Sep-12 11:30N 33°43' W 118°16'918.2
2017-Sep-12 11:00N 33°34' W 118°15'81593.9
2017-Sep-12 11:00N 33°43' W 118°15'5 9.1
2017-Sep-12 10:30N 33°38' W 118°15'63332.7
2017-Sep-12 10:30N 33°44' W 118°16'2 3.7
2017-Sep-12 10:00N 33°42' W 118°15'23320.5
2017-Sep-12 10:00N 33°44' W 118°16'1 1.3
2017-Sep-12 09:31N 33°44' W 118°17'1788.2
2017-Sep-12 09:30N 33°44' W 118°16'1 2.5
2017-Sep-12 09:00N 33°45' W 118°16'12267.7
2017-Sep-12 09:00N 33°44' W 118°16'0 0.0
2017-Sep-12 08:30N 33°44' W 118°16'1664.6
2017-Sep-12 08:30N 33°45' W 118°16'1 2.6
2017-Sep-12 08:00N 33°44' W 118°16'2 3.1
2017-Sep-12 07:30N 33°45' W 118°16'0 0.7
2017-Sep-12 07:00N 33°46' W 118°17'0 0.0
2017-Sep-12 06:30N 33°46' W 118°17'2 3.7
2017-Sep-12 06:00N 33°44' W 118°16'0 0.0
2017-Sep-12 05:30N 33°44' W 118°16'0 0.0
2017-Sep-12 05:00N 33°44' W 118°16'0 0.0
2017-Sep-12 04:30N 33°44' W 118°16'0 0.0
2017-Sep-12 04:00N 33°44' W 118°16'0 0.0
2017-Sep-12 03:30N 33°44' W 118°16'0 0.0
2017-Sep-12 03:00N 33°44' W 118°16'0 0.0
2017-Sep-12 02:30N 33°44' W 118°16'0 0.0
2017-Sep-12 02:00N 33°44' W 118°16'2 3.9
2017-Sep-12 01:30N 33°46' W 118°17'0 0.1
2017-Sep-12 01:00N 33°46' W 118°17'0 0.0
2017-Sep-12 00:30N 33°46' W 118°17'0 0.1
2017-Sep-12 00:00N 33°46' W 118°17'2 4.5
2017-Sep-11 23:30N 33°43' W 118°16'0 0.9
2017-Sep-11 23:00N 33°44' W 118°16'0 0.0
2017-Sep-11 22:30N 33°44' W 118°16'0 0.0
2017-Sep-11 22:00N 33°44' W 118°16'0 0.0
2017-Sep-11 21:30N 33°44' W 118°16'0 0.0
2017-Sep-11 21:00N 33°44' W 118°16'0 0.0
2017-Sep-11 20:30N 33°44' W 118°16'1 2.7
2017-Sep-11 19:59N 33°43' W 118°14'3 6.2
2017-Sep-11 19:30N 33°44' W 118°11'0 0.6
2017-Sep-11 19:00N 33°44' W 118°12'1 1.4
2017-Sep-11 18:30N 33°44' W 118°12'0 0.3
2017-Sep-11 18:00N 33°44' W 118°12'2 3.0
2017-Sep-11 17:30N 33°43' W 118°14'2 3.5
2017-Sep-11 17:00N 33°44' W 118°16'0 0.2
2017-Sep-11 16:30N 33°44' W 118°16'2 3.1
2017-Sep-11 16:01N 33°43' W 118°14'3 6.8
2017-Sep-11 15:30N 33°46' W 118°13'0 0.3
2017-Sep-11 14:57N 33°46' W 118°13'1 1.8
2017-Sep-11 14:30N 33°46' W 118°13'2 4.1
2017-Sep-11 14:00N 33°44' W 118°12'1 1.9
2017-Sep-11 13:30N 33°44' W 118°11'2 4.2
2017-Sep-11 12:58N 33°45' W 118°13'1 2.8
2017-Sep-11 12:30N 33°46' W 118°13'0 0.7
2017-Sep-11 12:00N 33°46' W 118°13'3 4.9
2017-Sep-11 11:28N 33°44' W 118°13'2 4.0
2017-Sep-11 11:00N 33°44' W 118°16'0 0.0
2017-Sep-11 10:30N 33°44' W 118°16'0 0.0
2017-Sep-11 10:00N 33°44' W 118°16'0 0.0
2017-Sep-11 09:29N 33°44' W 118°16'0 0.0
2017-Sep-11 09:00N 33°44' W 118°16'0 0.0
2017-Sep-11 08:30N 33°44' W 118°16'0 0.0
2017-Sep-11 08:00N 33°44' W 118°16'0 0.0
2017-Sep-11 07:30N 33°44' W 118°16'0 0.0
2017-Sep-11 06:59N 33°44' W 118°16'0 0.0
2017-Sep-11 06:30N 33°44' W 118°16'0 0.0
2017-Sep-11 06:00N 33°44' W 118°16'0 0.0
2017-Sep-11 05:30N 33°44' W 118°16'0 0.0
2017-Sep-11 05:00N 33°44' W 118°16'0 0.0
2017-Sep-11 04:30N 33°44' W 118°16'0 0.0
2017-Sep-11 04:00N 33°44' W 118°16'0 0.0
2017-Sep-11 03:30N 33°44' W 118°16'0 0.0
2017-Sep-11 03:00N 33°44' W 118°16'0 0.0
2017-Sep-11 02:30N 33°44' W 118°16'0 0.0
2017-Sep-11 02:00N 33°44' W 118°16'0 0.8
2017-Sep-11 01:30N 33°43' W 118°16'2 4.7
2017-Sep-11 01:00N 33°44' W 118°13'1 2.2
2017-Sep-11 00:31N 33°46' W 118°13'1 1.1
2017-Sep-11 00:00N 33°45' W 118°13'0 0.4
2017-Sep-10 23:30N 33°45' W 118°13'3 5.0
2017-Sep-10 23:00N 33°44' W 118°16'1 2.7
2017-Sep-10 22:30N 33°43' W 118°15'1 2.9
2017-Sep-10 22:00N 33°44' W 118°13'0 0.0
2017-Sep-10 21:30N 33°44' W 118°13'0 0.0
2017-Sep-10 20:59N 33°44' W 118°13'0 0.0
2017-Sep-10 20:30N 33°44' W 118°13'0 0.0
2017-Sep-10 20:00N 33°44' W 118°13'0 0.1
2017-Sep-10 19:29N 33°44' W 118°13'0 0.1
2017-Sep-10 19:00N 33°44' W 118°13'0 0.0
2017-Sep-10 18:30N 33°44' W 118°13'0 0.0
2017-Sep-10 17:59N 33°44' W 118°13'0 0.1
2017-Sep-10 17:30N 33°44' W 118°13'2 4.3
2017-Sep-10 17:00N 33°43' W 118°16'0 0.9
2017-Sep-10 16:30N 33°44' W 118°16'0 0.0
2017-Sep-10 16:00N 33°44' W 118°16'0 0.0
2017-Sep-10 15:30N 33°44' W 118°16'0 0.0
2017-Sep-10 15:00N 33°44' W 118°16'3 2.9
2017-Sep-10 14:00N 33°45' W 118°12'3 6.4
2017-Sep-10 13:30N 33°43' W 118°15'1 1.8
2017-Sep-10 13:00N 33°44' W 118°16'0 0.0
2017-Sep-10 12:30N 33°44' W 118°16'0 0.0
2017-Sep-10 12:00N 33°44' W 118°16'0 0.0
2017-Sep-10 11:30N 33°44' W 118°16'0 0.0
2017-Sep-10 11:00N 33°44' W 118°16'0 0.0
2017-Sep-10 10:30N 33°44' W 118°16'0 0.3
2017-Sep-10 10:01N 33°44' W 118°16'4 7.2
2017-Sep-10 09:30N 33°44' W 118°11'2 3.3
2017-Sep-10 09:00N 33°43' W 118°13'3 5.9
2017-Sep-10 08:30N 33°45' W 118°16'0 0.2
2017-Sep-10 08:00N 33°45' W 118°16'0 0.8
2017-Sep-10 07:30N 33°46' W 118°16'2 4.3
2017-Sep-10 07:00N 33°43' W 118°16'1 1.2
2017-Sep-10 06:30N 33°44' W 118°16'0 0.0
2017-Sep-10 06:00N 33°44' W 118°16'0 0.0
2017-Sep-10 05:30N 33°44' W 118°16'0 0.0
2017-Sep-10 05:00N 33°44' W 118°16'0 0.0
2017-Sep-10 04:30N 33°44' W 118°16'2 3.1
2017-Sep-10 04:00N 33°45' W 118°16'1 1.0
2017-Sep-10 03:30N 33°46' W 118°16'0 0.4
2017-Sep-10 03:00N 33°45' W 118°16'1 1.8
2017-Sep-10 02:30N 33°45' W 118°16'1 2.3
2017-Sep-10 02:00N 33°44' W 118°16'1 1.2
2017-Sep-10 01:30N 33°44' W 118°16'0 0.0
2017-Sep-10 01:00N 33°44' W 118°16'0 0.0
2017-Sep-10 00:30N 33°44' W 118°16'0 0.0
2017-Sep-10 00:00N 33°44' W 118°16'0 0.0
2017-Sep-09 23:30N 33°44' W 118°16'0 0.0
2017-Sep-09 23:00N 33°44' W 118°16'0 0.0
2017-Sep-09 22:29N 33°44' W 118°16'0 0.0
2017-Sep-09 22:00N 33°44' W 118°16'0 0.0
2017-Sep-09 21:30N 33°44' W 118°16'0 0.0
2017-Sep-09 21:00N 33°44' W 118°16'0 0.0
2017-Sep-09 20:30N 33°44' W 118°16'  

Dump ship's entire track history